EBLG/LGG METAR and TAF weather

Enter ICAO airport designator
Station Type Date Time Source
EBLG METAR 2018/12/12 22:50 UTC NOAA

EBLG 122250Z 08006KT CAVOK 00/M02 Q1022 NOSIG


Station Type Date Time Source
EBLG Decoded METAR 2018/12/12 22:50 UTC NOAA

Bierset, Belgium (EBLG) 50-39N 005-27E 178M
Dec 12, 2018 - 05:50 PM EST / 2018.12.12 2250 UTC
Wind: from the E (080 degrees) at 7 MPH (6 KT):0
Visibility: greater than 7 mile(s):0
Temperature: 32 F (0 C)
Windchill: 24 F (-4 C):1
Dew Point: 28 F (-2 C)
Relative Humidity: 86%
Pressure (altimeter): 30.18 in. Hg (1022 hPa)
ob: EBLG 122250Z 08006KT CAVOK 00/M02 Q1022 NOSIG
cycle: 23

Station Type Date Time Source
EBLG TAF 2018/12/12 18:27 UTC NOAA

TAF EBLG 121710Z 1218/1324 06005KT 6000 FEW006 SCT035
BECMG 1221/1223 3000 BR
BECMG 1306/1308 8000 NSW


Example: see airport list